Time;durP1;ratioP1;P1;durP2;ratioP2;P2;SDS_P1;SDS_P2;PMS_P1;PMS_P2;Temp;Humidity;BMP_temperature;BMP_pressure;BME280_temperature;BME280_humidity;BME280_pressure;Samples;Min_cycle;Max_cycle;Signal;HPM_P1;HPM_P2
2021/12/07 00:02:31;;;;;;;6.25;3.28;;;3.60;99.90;;;;;;5042184;28;20056;-82
2021/12/07 00:04:59;;;;;;;14.50;4.35;;;4.60;99.90;;;;;;5039873;28;20052;-81
2021/12/07 00:07:27;;;;;;;13.60;4.65;;;3.70;99.90;;;;;;5033956;28;20060;-83
2021/12/07 00:09:55;;;;;;;10.65;4.25;;;4.50;99.90;;;;;;5001103;28;20133;-82
2021/12/07 00:12:25;;;;;;;10.82;4.60;;;3.40;99.90;;;;;;5020156;28;20045;-83
2021/12/07 00:15:01;;;;;;;12.18;5.22;;;3.40;99.90;;;;;;5053590;28;20056;-82
2021/12/07 00:17:33;;;;;;;10.05;3.33;;;3.40;99.90;;;;;;5021046;28;20057;-83
2021/12/07 00:20:11;;;;;;;12.05;3.63;;;3.30;99.90;;;;;;5038433;28;20060;-83
2021/12/07 00:22:40;;;;;;;13.55;4.88;;;3.30;99.90;;;;;;5021907;28;20053;-83
2021/12/07 00:25:10;;;;;;;10.25;4.28;;;3.30;99.90;;;;;;5050600;28;20053;-82
2021/12/07 00:27:38;;;;;;;10.60;5.05;;;4.10;99.90;;;;;;5056478;28;20067;-83
2021/12/07 00:30:08;;;;;;;12.60;5.75;;;4.40;99.90;;;;;;5056209;28;20538;-84
2021/12/07 00:32:42;;;;;;;;;;;3.30;99.90;;;;;;5057106;28;20049;-83
2021/12/07 00:37:59;;;;;;;13.45;4.68;;;4.00;99.90;;;;;;5025962;28;20046;-84
2021/12/07 00:40:27;;;;;;;6.38;3.28;;;3.40;99.90;;;;;;5056268;28;20052;-84
2021/12/07 00:42:55;;;;;;;9.23;3.13;;;3.40;99.90;;;;;;5036890;28;20045;-84
2021/12/07 00:45:25;;;;;;;14.98;4.60;;;3.40;99.90;;;;;;5021657;28;20049;-83
2021/12/07 00:47:55;;;;;;;11.30;3.50;;;3.40;99.90;;;;;;5020631;28;20411;-84
2021/12/07 00:50:25;;;;;;;7.30;4.15;;;3.40;99.90;;;;;;5023735;28;20072;-85
2021/12/07 00:52:54;;;;;;;13.05;3.67;;;3.40;99.90;;;;;;5050445;28;20127;-82
2021/12/07 00:55:26;;;;;;;11.60;4.13;;;4.60;99.90;;;;;;5034684;28;20057;-83
2021/12/07 00:58:13;;;;;;;6.82;4.28;;;3.40;99.90;;;;;;5048595;28;20069;-83
2021/12/07 01:00:41;;;;;;;15.55;3.35;;;3.40;99.90;;;;;;5034252;28;20064;-82
2021/12/07 01:03:09;;;;;;;20.52;5.28;;;5.10;99.90;;;;;;5064208;28;20044;-84
2021/12/07 01:05:39;;;;;;;11.50;3.08;;;3.40;99.90;;;;;;5029846;28;20049;-82
2021/12/07 01:24:43;;;;;;;9.77;4.53;;;3.20;99.90;;;;;;5054124;28;20060;-83
2021/12/07 01:27:17;;;;;;;10.48;3.33;;;3.20;99.90;;;;;;5054952;28;20052;-83
2021/12/07 01:29:51;;;;;;;9.68;3.47;;;3.20;99.90;;;;;;5056622;28;20150;-82
2021/12/07 01:46:33;;;;;;;8.48;4.30;;;3.20;99.90;;;;;;5076851;28;20048;-83
2021/12/07 01:59:52;;;;;;;18.95;5.03;;;3.00;99.90;;;;;;5009264;28;20308;-83
2021/12/07 02:02:24;;;;;;;10.23;3.53;;;3.00;99.90;;;;;;5035377;28;20045;-83
2021/12/07 02:04:55;;;;;;;13.85;5.30;;;3.00;99.90;;;;;;5035709;28;20049;-83
2021/12/07 02:07:27;;;;;;;10.52;5.00;;;3.00;99.90;;;;;;5025306;28;20061;-83
2021/12/07 02:09:59;;;;;;;19.38;5.22;;;4.70;99.90;;;;;;5019671;28;20057;-83
2021/12/07 02:12:29;;;;;;;11.48;3.88;;;3.20;99.90;;;;;;5031040;28;20043;-82
2021/12/07 02:14:57;;;;;;;11.50;4.13;;;3.00;99.90;;;;;;5052466;28;20058;-84
2021/12/07 02:17:26;;;;;;;11.43;3.95;;;3.00;99.90;;;;;;5059665;28;20063;-83
2021/12/07 02:19:58;;;;;;;11.02;3.92;;;3.00;99.90;;;;;;5047617;28;20056;-81
2021/12/07 02:22:27;;;;;;;11.50;4.28;;;3.00;99.90;;;;;;5059484;28;20049;-83
2021/12/07 02:24:55;;;;;;;7.75;3.20;;;3.00;99.90;;;;;;5041807;28;20053;-84
2021/12/07 02:27:25;;;;;;;18.75;3.78;;;3.00;99.90;;;;;;5044404;28;20040;-84
2021/12/07 02:29:53;;;;;;;19.98;3.30;;;3.00;99.90;;;;;;5044220;28;20483;-84
2021/12/07 02:32:22;;;;;;;14.48;4.30;;;3.00;99.90;;;;;;5060374;28;20056;-84
2021/12/07 02:34:56;;;;;;;17.23;3.42;;;3.00;99.90;;;;;;5025476;28;20055;-84
2021/12/07 02:37:54;;;;;;;11.40;4.10;;;3.00;99.90;;;;;;5044962;28;20403;-83
2021/12/07 02:40:23;;;;;;;14.10;4.05;;;3.00;99.90;;;;;;5030121;28;20057;-84
2021/12/07 02:42:52;;;;;;;8.88;2.95;;;3.00;99.90;;;;;;5046277;28;20041;-82
2021/12/07 02:45:22;;;;;;;7.03;3.22;;;3.00;99.90;;;;;;5046590;28;20059;-83
2021/12/07 02:47:53;;;;;;;7.22;3.17;;;3.00;99.90;;;;;;5031383;28;20055;-83
2021/12/07 02:50:21;;;;;;;12.23;4.80;;;3.00;99.90;;;;;;5046867;28;20499;-83
2021/12/07 02:52:50;;;;;;;8.65;3.90;;;3.00;99.90;;;;;;5076563;28;20052;-83
2021/12/07 02:55:18;;;;;;;12.13;4.65;;;3.00;99.90;;;;;;5050825;28;20052;-84
2021/12/07 02:57:47;;;;;;;7.78;3.13;;;3.00;99.90;;;;;;5057118;28;20071;-84
2021/12/07 03:00:29;;;;;;;11.65;3.45;;;3.00;99.90;;;;;;5095510;28;20048;-83
2021/12/07 03:03:04;;;;;;;9.63;3.47;;;3.00;99.90;;;;;;5061663;28;20021;-86
2021/12/07 03:05:50;;;;;;;12.98;3.03;;;3.20;99.90;;;;;;5079791;28;20031;-83
2021/12/07 03:28:16;;;;;;;12.52;3.70;;;3.20;99.90;;;;;;5061948;28;20044;-81
2021/12/07 03:30:44;;;;;;;8.27;4.13;;;3.20;99.90;;;;;;5054737;28;20031;-83
2021/12/07 03:33:14;;;;;;;16.17;4.25;;;3.40;99.90;;;;;;5059627;28;20049;-84
2021/12/07 03:35:46;;;;;;;15.70;6.07;;;3.30;99.90;;;;;;5057600;28;20039;-87
2021/12/07 03:38:14;;;;;;;14.23;4.20;;;3.40;99.90;;;;;;5073280;28;20036;-86
2021/12/07 03:40:42;;;;;;;16.33;4.25;;;3.20;99.90;;;;;;5065956;28;20057;-85
2021/12/07 03:43:12;;;;;;;25.52;5.07;;;3.20;99.90;;;;;;5036618;28;20045;-83
2021/12/07 03:45:41;;;;;;;12.73;4.30;;;3.20;99.90;;;;;;5036378;28;20052;-83
2021/12/07 03:48:13;;;;;;;16.92;3.95;;;3.10;99.90;;;;;;5031960;28;20377;-83
2021/12/07 03:50:41;;;;;;;6.72;3.17;;;3.10;99.90;;;;;;5042684;28;20049;-85
2021/12/07 03:53:11;;;;;;;20.42;3.47;;;3.10;99.90;;;;;;5022792;28;20056;-84
2021/12/07 03:55:41;;;;;;;8.70;3.35;;;3.00;99.90;;;;;;5051236;28;20049;-84
2021/12/07 03:58:09;;;;;;;11.15;4.95;;;3.00;99.90;;;;;;5007723;28;20052;-83
2021/12/07 04:00:40;;;;;;;9.93;3.95;;;2.90;99.90;;;;;;4990441;28;20064;-82
2021/12/07 04:03:13;;;;;;;13.27;3.58;;;2.80;99.90;;;;;;5048868;28;20645;-84
2021/12/07 04:05:45;;;;;;;12.45;3.45;;;2.70;99.90;;;;;;5026076;28;20053;-83
2021/12/07 04:08:24;;;;;;;9.98;3.25;;;2.70;99.90;;;;;;5041110;28;20041;-87
2021/12/07 04:10:55;;;;;;;6.35;3.15;;;2.60;99.90;;;;;;5046885;28;20041;-83
2021/12/07 04:13:23;;;;;;;8.60;3.80;;;3.10;99.90;;;;;;5038461;28;20060;-84
2021/12/07 04:15:51;;;;;;;20.23;3.83;;;2.50;99.90;;;;;;5020940;28;20064;-85
2021/12/07 04:18:21;;;;;;;8.15;4.60;;;2.40;99.90;;;;;;5020208;28;20034;-82
2021/12/07 04:20:49;;;;;;;9.57;3.17;;;2.40;99.90;;;;;;5017703;28;20057;-83
2021/12/07 04:23:17;;;;;;;15.77;4.07;;;2.30;99.90;;;;;;4968091;28;20062;-83
2021/12/07 04:25:45;;;;;;;10.30;4.05;;;3.20;99.90;;;;;;5020651;28;20053;-85
2021/12/07 04:28:14;;;;;;;13.20;3.88;;;2.30;99.90;;;;;;5004224;28;20493;-83
2021/12/07 04:30:43;;;;;;;6.50;4.10;;;2.20;99.90;;;;;;5003684;28;20057;-84
2021/12/07 04:33:13;;;;;;;11.85;3.83;;;2.20;99.90;;;;;;5014705;28;20050;-84
2021/12/07 04:35:44;;;;;;;13.18;3.40;;;2.20;99.90;;;;;;4984603;28;20057;-83
2021/12/07 04:38:13;;;;;;;10.63;3.25;;;2.20;99.90;;;;;;5031847;28;20052;-83
2021/12/07 04:40:41;;;;;;;11.55;4.60;;;2.20;99.90;;;;;;4997874;28;20053;-84
2021/12/07 04:43:10;;;;;;;13.38;4.40;;;2.40;99.90;;;;;;5016173;28;20046;-85
2021/12/07 04:59:11;;;;;;;8.23;3.88;;;1.90;99.90;;;;;;5020044;28;20045;-83
2021/12/07 05:01:41;;;;;;;10.80;3.47;;;1.90;99.90;;;;;;4983314;28;20061;-82
2021/12/07 05:04:15;;;;;;;11.55;3.85;;;1.90;99.90;;;;;;5022482;28;20049;-81
2021/12/07 05:06:49;;;;;;;7.57;3.53;;;1.80;99.90;;;;;;5057130;28;20049;-83
2021/12/07 05:09:31;;;;;;;10.23;3.00;;;1.80;99.90;;;;;;5039345;28;20056;-84
2021/12/07 05:14:36;;;;;;;7.45;2.90;;;1.60;99.90;;;;;;5062587;28;20980;-83
2021/12/07 05:17:42;;;;;;;9.00;3.60;;;1.90;99.90;;;;;;5065432;28;20051;-84
2021/12/07 05:39:16;;;;;;;12.90;4.13;;;1.80;99.90;;;;;;5042483;28;20439;-83
2021/12/07 05:41:43;;;;;;;11.38;3.92;;;1.70;99.90;;;;;;5053757;28;20040;-83
2021/12/07 05:44:11;;;;;;;6.70;3.65;;;1.70;99.90;;;;;;5048166;28;20049;-83
2021/12/07 05:46:39;;;;;;;13.23;5.15;;;1.70;99.90;;;;;;5071507;28;20536;-82
2021/12/07 05:49:07;;;;;;;15.23;4.10;;;1.70;99.90;;;;;;5058073;28;20212;-83
2021/12/07 05:51:35;;;;;;;20.73;4.18;;;2.60;99.90;;;;;;5026701;28;20079;-82
2021/12/07 05:54:03;;;;;;;13.30;4.18;;;1.70;99.90;;;;;;5066417;28;20060;-83
2021/12/07 05:56:30;;;;;;;9.25;4.65;;;1.70;99.90;;;;;;5087370;28;20048;-84
2021/12/07 05:58:58;;;;;;;13.35;4.28;;;1.70;99.90;;;;;;5051509;28;20049;-85
2021/12/07 06:01:26;;;;;;;13.48;4.15;;;1.70;99.90;;;;;;5043382;28;20047;-84
2021/12/07 06:03:55;;;;;;;13.32;6.18;;;1.70;99.90;;;;;;5043257;28;20060;-83
2021/12/07 06:06:23;;;;;;;29.52;7.80;;;1.80;99.90;;;;;;5042281;28;20048;-85
2021/12/07 06:08:51;;;;;;;20.95;7.10;;;3.40;99.90;;;;;;5046610;28;20055;-84
2021/12/07 06:11:21;;;;;;;17.65;6.00;;;1.80;99.90;;;;;;5081641;28;20056;-85
2021/12/07 06:13:51;;;;;;;13.03;5.43;;;1.80;99.90;;;;;;5073358;28;20041;-84
2021/12/07 06:16:19;;;;;;;11.63;5.43;;;1.80;99.90;;;;;;5074223;28;20332;-84
2021/12/07 06:18:47;;;;;;;16.08;5.50;;;1.80;99.90;;;;;;5043702;28;20048;-83
2021/12/07 06:21:15;;;;;;;13.60;5.38;;;1.90;99.90;;;;;;5044185;28;20056;-84
2021/12/07 06:23:44;;;;;;;21.00;6.63;;;1.90;99.90;;;;;;5060137;28;20048;-85
2021/12/07 06:26:12;;;;;;;12.75;5.30;;;1.90;99.90;;;;;;5042833;28;20052;-85
2021/12/07 06:28:40;;;;;;;14.23;4.22;;;2.00;99.90;;;;;;5043345;28;20052;-86
2021/12/07 06:31:08;;;;;;;10.75;4.35;;;2.10;99.90;;;;;;5059891;28;20044;-85
2021/12/07 06:33:37;;;;;;;9.82;3.72;;;2.70;99.90;;;;;;5057296;28;20049;-85
2021/12/07 06:36:06;;;;;;;13.35;4.47;;;2.10;99.90;;;;;;5039960;28;20048;-85
2021/12/07 06:38:34;;;;;;;19.38;4.72;;;2.20;99.90;;;;;;5058005;28;20047;-84
2021/12/07 06:41:04;;;;;;;16.48;3.78;;;2.20;99.90;;;;;;5062689;28;20045;-84
2021/12/07 06:43:33;;;;;;;22.10;5.75;;;3.30;99.90;;;;;;5054526;28;20052;-85
2021/12/07 06:46:01;;;;;;;12.95;4.00;;;2.30;99.90;;;;;;5053890;28;20045;-84
2021/12/07 06:48:29;;;;;;;16.42;4.03;;;2.40;99.90;;;;;;5018965;28;20056;-84
2021/12/07 06:50:57;;;;;;;10.52;4.57;;;2.40;99.90;;;;;;5028466;28;20079;-83
2021/12/07 06:53:26;;;;;;;12.80;4.65;;;2.40;99.90;;;;;;5053715;28;20067;-83
2021/12/07 06:55:54;;;;;;;27.48;5.25;;;2.60;99.90;;;;;;5039294;28;20056;-83
2021/12/07 06:58:22;;;;;;;12.27;3.60;;;2.50;99.90;;;;;;5056728;28;20052;-83
2021/12/07 07:00:50;;;;;;;17.98;4.50;;;2.50;99.90;;;;;;5042062;28;20040;-82
2021/12/07 07:03:18;;;;;;;23.80;5.75;;;2.60;99.90;;;;;;5025273;28;20415;-82
2021/12/07 07:05:46;;;;;;;13.27;4.95;;;2.60;99.90;;;;;;5038773;28;20049;-84
2021/12/07 07:08:15;;;;;;;12.88;4.78;;;2.70;99.90;;;;;;5043873;28;20055;-83
2021/12/07 07:10:43;;;;;;;7.40;4.18;;;2.70;99.90;;;;;;5055221;28;20049;-84
2021/12/07 07:13:12;;;;;;;13.23;4.63;;;2.70;99.90;;;;;;5040022;28;20632;-83
2021/12/07 07:15:40;;;;;;;18.77;5.20;;;2.80;99.90;;;;;;5056336;28;20051;-84
2021/12/07 07:18:09;;;;;;;11.88;4.80;;;2.80;99.90;;;;;;5039763;28;20409;-84
2021/12/07 07:20:37;;;;;;;13.95;5.30;;;2.80;99.90;;;;;;5039962;28;20143;-86
2021/12/07 07:23:05;;;;;;;19.73;5.03;;;2.80;99.90;;;;;;5057275;28;20049;-83
2021/12/07 07:25:34;;;;;;;14.80;5.00;;;2.80;99.90;;;;;;5039063;28;20056;-82
2021/12/07 07:28:02;;;;;;;21.13;4.85;;;2.90;99.90;;;;;;5055917;28;20340;-83
2021/12/07 07:30:30;;;;;;;13.60;4.30;;;2.90;99.90;;;;;;5074231;28;20056;-82
2021/12/07 07:32:59;;;;;;;14.90;4.25;;;2.90;99.90;;;;;;5044912;28;20079;-82
2021/12/07 07:35:29;;;;;;;14.90;4.05;;;2.90;99.90;;;;;;5036102;28;20040;-82
2021/12/07 07:38:00;;;;;;;11.52;4.28;;;3.00;99.90;;;;;;5019209;28;20041;-82
2021/12/07 07:40:30;;;;;;;16.90;3.85;;;3.00;99.90;;;;;;5051341;28;20048;-83
2021/12/07 07:43:01;;;;;;;11.63;4.60;;;3.70;99.90;;;;;;5050495;28;20059;-81
2021/12/07 07:45:44;;;;;;;18.20;7.25;;;3.10;99.90;;;;;;5053156;28;20041;-81
2021/12/07 07:48:16;;;;;;;19.50;5.13;;;4.00;99.90;;;;;;5032685;28;20060;-82
2021/12/07 07:50:44;;;;;;;15.80;5.25;;;3.20;99.90;;;;;;5048000;28;20040;-82
2021/12/07 07:53:12;;;;;;;16.48;4.28;;;3.20;99.90;;;;;;5050045;28;20087;-81
2021/12/07 07:55:42;;;;;;;12.98;6.15;;;3.40;99.90;;;;;;5068028;28;20052;-80
2021/12/07 07:58:12;;;;;;;12.35;3.85;;;3.20;99.90;;;;;;5050544;28;20072;-81
2021/12/07 08:00:42;;;;;;;13.70;4.10;;;3.30;99.90;;;;;;5069928;28;20048;-82
2021/12/07 08:03:10;;;;;;;14.40;3.67;;;3.30;99.90;;;;;;5054195;28;20044;-83
2021/12/07 08:05:38;;;;;;;17.13;5.47;;;3.40;99.90;;;;;;5065659;28;20047;-80
2021/12/07 08:08:07;;;;;;;19.98;4.25;;;3.40;99.90;;;;;;5051332;28;20510;-80
2021/12/07 08:10:35;;;;;;;10.48;3.60;;;3.40;99.90;;;;;;5067915;28;20044;-80
2021/12/07 08:13:06;;;;;;;14.15;3.42;;;3.40;99.90;;;;;;5067069;28;20063;-80
2021/12/07 08:15:38;;;;;;;;;;;3.50;99.90;;;;;;5034563;28;20057;-80
2021/12/07 08:18:06;;;;;;;;;;;3.50;99.90;;;;;;5051834;28;19920;-84
2021/12/07 08:20:34;;;;;;;15.93;4.72;;;3.50;99.90;;;;;;5070177;28;19920;-84
2021/12/07 08:23:04;;;;;;;12.70;4.45;;;3.50;99.90;;;;;;5051313;28;20048;-80
2021/12/07 08:25:37;;;;;;;8.63;3.55;;;3.50;99.90;;;;;;5051456;28;20045;-80
2021/12/07 08:28:07;;;;;;;13.43;3.45;;;3.60;99.90;;;;;;5067616;28;20055;-80
2021/12/07 08:30:36;;;;;;;5.50;3.75;;;3.60;99.90;;;;;;5032721;28;20040;-80
2021/12/07 08:33:04;;;;;;;9.98;3.30;;;3.60;99.90;;;;;;5057236;28;20044;-82
2021/12/07 08:35:32;;;;;;;16.42;3.42;;;3.60;99.90;;;;;;5067818;28;20056;-80
2021/12/07 08:38:00;;;;;;;9.43;3.40;;;3.60;99.90;;;;;;5084499;28;20051;-82
2021/12/07 08:40:31;;;;;;;11.93;4.00;;;4.60;99.90;;;;;;5067671;28;20304;-83
2021/12/07 08:43:00;;;;;;;7.75;3.45;;;3.70;99.90;;;;;;5033455;28;20053;-82
2021/12/07 08:45:28;;;;;;;6.45;3.67;;;3.80;99.90;;;;;;5051373;28;20045;-81
2021/12/07 08:47:58;;;;;;;15.57;5.05;;;3.90;99.90;;;;;;5069160;28;20055;-80
2021/12/07 08:50:31;;;;;;;16.65;5.30;;;4.00;99.90;;;;;;5069191;28;20048;-82
2021/12/07 08:53:05;;;;;;;13.18;3.17;;;4.00;99.90;;;;;;5051414;28;20039;-82
2021/12/07 09:01:08;;;;;;;15.05;4.82;;;4.20;99.90;;;;;;5074704;28;20041;-80
2021/12/07 09:03:40;;;;;;;11.80;3.67;;;4.30;99.90;;;;;;5052685;28;20543;-84
2021/12/07 09:06:08;;;;;;;7.15;3.13;;;4.30;99.90;;;;;;5070516;28;20048;-81
2021/12/07 09:08:36;;;;;;;32.85;5.72;;;4.30;99.90;;;;;;5087995;28;20483;-80
2021/12/07 09:11:07;;;;;;;13.75;6.22;;;4.40;99.90;;;;;;5075544;28;20048;-80
2021/12/07 09:13:37;;;;;;;9.60;5.00;;;4.40;99.90;;;;;;5066782;28;20067;-81
2021/12/07 09:16:08;;;;;;;10.70;3.95;;;6.10;99.90;;;;;;5071355;28;20123;-80
2021/12/07 09:18:35;;;;;;;12.35;5.10;;;4.40;99.90;;;;;;5054882;28;20044;-85
2021/12/07 09:21:05;;;;;;;9.57;4.32;;;5.90;99.90;;;;;;5071673;28;20095;-84
2021/12/07 09:23:34;;;;;;;10.02;3.95;;;4.50;99.90;;;;;;5043395;28;20051;-79
2021/12/07 09:26:04;;;;;;;7.97;4.38;;;4.60;99.90;;;;;;5083727;28;20116;-79
2021/12/07 09:28:36;;;;;;;18.58;3.55;;;4.60;99.90;;;;;;5076091;28;20056;-78
2021/12/07 09:31:06;;;;;;;27.23;7.40;;;4.70;99.90;;;;;;5060472;28;20063;-82
2021/12/07 09:33:34;;;;;;;8.30;3.40;;;5.10;99.90;;;;;;5057134;28;20044;-78
2021/12/07 09:36:05;;;;;;;21.70;5.57;;;5.60;99.90;;;;;;5064269;28;20045;-81
2021/12/07 09:38:34;;;;;;;12.43;7.75;;;4.80;99.90;;;;;;5072391;28;20060;-79
2021/12/07 09:41:06;;;;;;;15.88;5.28;;;5.90;99.90;;;;;;5054973;28;20482;-79
2021/12/07 09:43:34;;;;;;;25.63;5.75;;;4.80;99.90;;;;;;5036905;28;20064;-78
2021/12/07 09:46:07;;;;;;;13.75;3.90;;;6.30;99.90;;;;;;5039973;28;20048;-80
2021/12/07 09:48:36;;;;;;;13.75;2.78;;;5.10;99.90;;;;;;5061565;28;20052;-79
2021/12/07 09:51:09;;;;;;;14.68;4.97;;;5.00;99.90;;;;;;5076360;28;20048;-82
2021/12/07 09:53:37;;;;;;;27.23;4.05;;;5.00;99.90;;;;;;5078560;28;20045;-81
2021/12/07 09:56:18;;;;;;;11.07;3.72;;;5.00;99.90;;;;;;5067919;28;20044;-82
2021/12/07 09:58:53;;;;;;;19.33;4.60;;;5.10;99.90;;;;;;5071713;28;20045;-82
2021/12/07 10:01:24;;;;;;;8.75;3.10;;;5.10;99.90;;;;;;5070911;28;20032;-81
2021/12/07 10:03:53;;;;;;;25.08;6.55;;;5.20;99.90;;;;;;5038930;28;20048;-84
2021/12/07 10:06:22;;;;;;;13.27;3.80;;;5.20;99.90;;;;;;5073144;28;20056;-86
2021/12/07 10:08:50;;;;;;;42.75;5.28;;;5.30;99.90;;;;;;5074497;28;20061;-86
2021/12/07 10:11:18;;;;;;;16.75;4.80;;;5.30;99.90;;;;;;5039036;28;20044;-82
2021/12/07 10:13:50;;;;;;;12.02;4.88;;;5.40;99.90;;;;;;5047171;28;20055;-86
2021/12/07 10:16:22;;;;;;;13.23;5.03;;;5.40;99.90;;;;;;5077196;28;20447;-87
2021/12/07 10:18:56;;;;;;;21.40;6.65;;;5.50;99.90;;;;;;5040335;28;20053;-84
2021/12/07 10:21:31;;;;;;;12.38;3.63;;;5.60;99.90;;;;;;5076047;28;20061;-84
2021/12/07 10:24:07;;;;;;;17.30;4.55;;;5.60;99.90;;;;;;5057022;28;20512;-85
2021/12/07 10:26:38;;;;;;;18.85;7.97;;;5.70;99.90;;;;;;5073408;28;20048;-83
2021/12/07 10:29:15;;;;;;;19.58;6.25;;;6.00;99.90;;;;;;5074400;28;20059;-83
2021/12/07 10:31:50;;;;;;;;;;;5.80;99.90;;;;;;5081227;28;20055;-85
2021/12/07 10:34:23;;;;;;;22.88;4.78;;;5.90;99.90;;;;;;5064787;28;19939;-83
2021/12/07 10:37:03;;;;;;;12.98;4.97;;;5.90;99.90;;;;;;5090920;28;20063;-84
2021/12/07 10:39:41;;;;;;;20.10;4.97;;;6.00;99.90;;;;;;5092583;28;20319;-79
2021/12/07 10:42:18;;;;;;;16.42;6.68;;;6.00;99.90;;;;;;5069306;28;20059;-84
2021/12/07 10:45:05;;;;;;;12.90;4.93;;;6.10;99.90;;;;;;5081630;28;20590;-85
2021/12/07 10:47:33;;;;;;;13.55;5.68;;;6.10;99.90;;;;;;5063267;28;20491;-86
2021/12/07 10:50:09;;;;;;;28.52;4.18;;;6.20;99.90;;;;;;5083286;28;20577;-85
2021/12/07 10:52:42;;;;;;;23.35;6.90;;;6.20;99.90;;;;;;5079529;28;20051;-81
2021/12/07 10:55:19;;;;;;;14.93;5.43;;;6.30;99.90;;;;;;5077964;28;20044;-84
2021/12/07 10:57:51;;;;;;;13.05;5.28;;;6.40;99.90;;;;;;5059515;28;20036;-82
2021/12/07 11:00:20;;;;;;;13.80;6.18;;;6.40;99.90;;;;;;5057654;28;20048;-83
2021/12/07 11:03:12;;;;;;;16.13;5.07;;;6.90;99.90;;;;;;5086182;28;20051;-82
2021/12/07 11:05:50;;;;;;;24.90;6.88;;;6.60;99.90;;;;;;5072681;28;20051;-83
2021/12/07 11:08:23;;;;;;;21.13;5.15;;;6.60;99.90;;;;;;5073523;28;20841;-81
2021/12/07 11:10:52;;;;;;;18.10;6.00;;;6.70;99.90;;;;;;5061388;28;20079;-80
2021/12/07 11:13:36;;;;;;;12.05;4.63;;;6.70;99.90;;;;;;5068807;28;20040;-80
2021/12/07 11:16:11;;;;;;;19.48;5.93;;;6.80;99.90;;;;;;5049909;28;20438;-78
2021/12/07 11:18:42;;;;;;;16.90;4.35;;;6.90;99.90;;;;;;5070939;28;20049;-80
2021/12/07 11:21:14;;;;;;;21.27;6.45;;;6.90;99.90;;;;;;5071671;28;20048;-78
2021/12/07 11:23:55;;;;;;;19.13;4.03;;;7.00;99.90;;;;;;5051759;28;20613;-80
2021/12/07 11:31:49;;;;;;;19.08;3.60;;;7.10;99.90;;;;;;5051746;28;20474;-82
2021/12/07 11:34:27;;;;;;;22.33;6.13;;;7.10;99.90;;;;;;5067327;28;20052;-81
2021/12/07 11:36:56;;;;;;;16.80;5.10;;;7.20;99.90;;;;;;5070758;28;20427;-83
2021/12/07 11:39:30;;;;;;;28.05;4.07;;;7.50;99.90;;;;;;5069462;28;20061;-80
2021/12/07 11:42:01;;;;;;;13.45;4.05;;;7.20;99.90;;;;;;5050328;28;20453;-82
2021/12/07 11:44:31;;;;;;;19.13;3.50;;;7.30;99.90;;;;;;5067852;28;20720;-79
2021/12/07 11:47:05;;;;;;;13.82;3.28;;;7.30;99.90;;;;;;5034430;28;20052;-81
2021/12/07 11:49:34;;;;;;;7.57;3.58;;;7.40;99.90;;;;;;5035011;28;20531;-79
2021/12/07 11:52:05;;;;;;;17.25;3.38;;;7.40;99.90;;;;;;5070595;28;20037;-80
2021/12/07 11:54:35;;;;;;;;;;;7.40;99.90;;;;;;5069046;28;20049;-83
2021/12/07 11:57:06;;;;;;;12.80;3.90;;;7.40;99.90;;;;;;5051875;28;20095;-81
2021/12/07 11:59:35;;;;;;;14.68;4.82;;;7.40;99.90;;;;;;5053403;28;20044;-82
2021/12/07 12:02:05;;;;;;;17.67;3.63;;;7.40;99.90;;;;;;4806040;28;10000949;-80
2021/12/07 12:04:34;;;;;;;12.20;3.28;;;7.40;99.90;;;;;;5065681;28;20260;-80
2021/12/07 12:07:03;;;;;;;15.75;6.65;;;7.40;99.90;;;;;;5050997;28;20040;-81
2021/12/07 12:09:31;;;;;;;16.65;5.20;;;7.50;99.90;;;;;;5054806;28;20049;-82
2021/12/07 12:12:40;;;;;;;12.45;3.20;;;7.40;99.90;;;;;;5055935;28;20056;-81
2021/12/07 12:15:29;;;;;;;24.08;4.50;;;7.40;99.90;;;;;;5035934;28;20041;-81
2021/12/07 12:18:37;;;;;;;10.85;3.83;;;7.40;99.90;;;;;;5053522;28;20064;-86
2021/12/07 12:21:53;;;;;;;21.83;4.88;;;7.40;99.90;;;;;;5036564;28;20425;-84
2021/12/07 12:24:44;;;;;;;19.75;5.05;;;7.40;99.90;;;;;;5029738;28;20532;-85
2021/12/07 12:27:22;;;;;;;18.83;5.10;;;7.40;99.90;;;;;;5012444;28;20049;-83
2021/12/07 12:29:52;;;;;;;23.00;5.35;;;7.40;99.90;;;;;;5038504;28;20049;-83
2021/12/07 12:32:38;;;;;;;24.20;4.72;;;7.40;99.90;;;;;;5049405;28;20037;-85
2021/12/07 12:35:09;;;;;;;15.85;4.85;;;7.40;99.90;;;;;;5029696;28;20056;-83
2021/12/07 12:37:38;;;;;;;11.98;5.28;;;7.40;99.90;;;;;;5049697;28;20619;-81
2021/12/07 12:40:17;;;;;;;10.40;3.85;;;7.40;99.90;;;;;;5047178;28;20049;-82
2021/12/07 12:42:48;;;;;;;19.30;5.72;;;7.40;99.90;;;;;;5049608;28;20040;-84
2021/12/07 12:45:29;;;;;;;18.38;7.00;;;7.40;99.90;;;;;;5047247;28;20393;-80
2021/12/07 12:48:05;;;;;;;13.05;4.57;;;7.30;99.90;;;;;;5029339;28;20247;-81
2021/12/07 12:50:42;;;;;;;16.65;4.43;;;7.30;99.90;;;;;;5042796;28;20099;-84
2021/12/07 12:53:12;;;;;;;7.65;3.55;;;7.30;99.90;;;;;;5047202;28;20408;-82
2021/12/07 12:55:57;;;;;;;22.67;4.68;;;7.30;99.90;;;;;;5048801;28;20045;-78
2021/12/07 12:58:29;;;;;;;17.08;3.85;;;7.30;99.90;;;;;;5046603;28;20056;-79
2021/12/07 13:01:14;;;;;;;11.45;3.65;;;8.00;99.90;;;;;;5046069;28;20503;-81
2021/12/07 13:03:54;;;;;;;18.90;5.65;;;7.40;99.90;;;;;;5046414;28;20033;-80
2021/12/07 13:06:25;;;;;;;14.88;4.13;;;7.40;99.90;;;;;;5046460;28;20053;-80
2021/12/07 13:09:19;;;;;;;17.70;4.57;;;7.40;99.90;;;;;;5053442;28;20059;-80
2021/12/07 13:11:56;;;;;;;14.57;4.47;;;7.40;99.90;;;;;;5029807;28;20487;-80
2021/12/07 13:14:24;;;;;;;18.88;6.05;;;7.40;99.90;;;;;;5048224;28;20072;-80
2021/12/07 13:17:00;;;;;;;10.63;4.20;;;7.40;99.90;;;;;;5059291;28;20203;-81
2021/12/07 13:19:29;;;;;;;18.85;6.82;;;7.40;99.90;;;;;;5080204;28;20056;-84
2021/12/07 13:22:04;;;;;;;26.95;6.40;;;7.50;99.90;;;;;;5066782;28;20143;-81
2021/12/07 13:24:38;;;;;;;16.25;3.83;;;7.50;99.90;;;;;;5047749;28;20639;-80
2021/12/07 13:27:16;;;;;;;13.27;4.15;;;7.50;99.90;;;;;;5052205;28;20403;-84
2021/12/07 13:29:51;;;;;;;12.32;4.07;;;7.50;99.90;;;;;;5067845;28;20047;-81
2021/12/07 13:32:19;;;;;;;13.70;4.68;;;7.50;99.90;;;;;;5055305;28;20411;-82
2021/12/07 13:35:01;;;;;;;19.60;6.43;;;9.30;99.90;;;;;;5049613;28;20048;-78
2021/12/07 13:37:49;;;;;;;21.67;5.90;;;7.60;99.90;;;;;;5049987;28;20388;-83
2021/12/07 13:40:23;;;;;;;5.85;3.20;;;7.60;99.90;;;;;;5049397;28;20037;-81
2021/12/07 13:42:55;;;;;;;10.73;4.68;;;7.60;99.90;;;;;;5068415;28;20051;-80
2021/12/07 13:45:24;;;;;;;5.60;3.67;;;7.60;99.90;;;;;;5033032;28;20230;-84
2021/12/07 13:47:56;;;;;;;9.10;3.80;;;7.60;99.90;;;;;;5067242;28;20392;-80
2021/12/07 13:50:31;;;;;;;17.23;5.95;;;7.60;99.90;;;;;;5064133;28;20045;-82
2021/12/07 13:53:00;;;;;;;15.00;3.90;;;7.60;99.90;;;;;;5067331;28;20044;-83
2021/12/07 13:55:32;;;;;;;17.83;3.78;;;7.70;99.90;;;;;;5048775;28;20491;-84
2021/12/07 13:58:03;;;;;;;10.88;3.67;;;7.70;99.90;;;;;;5059953;28;20052;-83
2021/12/07 14:00:37;;;;;;;12.57;4.75;;;7.70;99.90;;;;;;5068751;28;20044;-81
2021/12/07 14:03:08;;;;;;;8.02;3.47;;;7.70;99.90;;;;;;5073956;28;20044;-79
2021/12/07 14:05:40;;;;;;;8.55;3.40;;;7.70;99.90;;;;;;5053335;28;20087;-80
2021/12/07 14:08:14;;;;;;;14.07;2.83;;;7.70;99.90;;;;;;4683872;28;10000243;-83
2021/12/07 14:10:50;;;;;;;7.70;2.80;;;7.80;99.90;;;;;;5049304;28;20055;-83
2021/12/07 14:13:20;;;;;;;12.13;3.03;;;8.10;99.90;;;;;;5036794;28;20053;-82
2021/12/07 14:16:15;;;;;;;10.43;3.65;;;7.90;99.90;;;;;;5035227;28;20067;-83
2021/12/07 14:18:52;;;;;;;11.02;3.38;;;7.90;99.90;;;;;;5062652;28;20055;-82
2021/12/07 14:21:21;;;;;;;5.88;2.58;;;8.00;99.90;;;;;;5051642;28;20045;-83
2021/12/07 14:24:04;;;;;;;4.20;2.33;;;8.00;99.90;;;;;;5052287;28;20059;-83
2021/12/07 14:26:36;;;;;;;16.50;4.10;;;8.00;99.90;;;;;;5051815;28;20048;-80
2021/12/07 14:29:14;;;;;;;14.57;4.10;;;8.10;99.90;;;;;;5068236;28;20040;-82
2021/12/07 14:31:45;;;;;;;4.10;2.40;;;8.10;99.90;;;;;;5068216;28;20045;-82
2021/12/07 14:34:49;;;;;;;16.77;3.88;;;8.20;99.90;;;;;;5049607;28;20028;-86
2021/12/07 14:37:17;;;;;;;10.68;2.33;;;8.20;99.90;;;;;;5062304;28;20048;-82
2021/12/07 14:39:50;;;;;;;13.02;3.78;;;8.20;99.90;;;;;;5072382;28;20558;-86
2021/12/07 14:42:23;;;;;;;11.55;3.45;;;8.10;99.90;;;;;;5074082;28;20052;-84
2021/12/07 14:47:58;;;;;;;18.70;4.10;;;8.10;99.90;;;;;;5050293;28;20071;-83
2021/12/07 14:50:43;;;;;;;11.35;3.42;;;8.00;99.90;;;;;;5067391;28;20044;-82
2021/12/07 14:53:11;;;;;;;13.30;3.42;;;8.00;99.90;;;;;;5045553;28;20059;-83
2021/12/07 14:55:57;;;;;;;4.40;2.35;;;8.00;99.90;;;;;;5059021;28;20518;-82
2021/12/07 14:58:43;;;;;;;9.73;3.25;;;8.00;99.90;;;;;;5046101;28;20049;-84
2021/12/07 15:01:23;;;;;;;8.85;2.88;;;8.10;99.90;;;;;;5068743;28;20404;-83
2021/12/07 15:04:07;;;;;;;11.77;4.03;;;8.10;99.90;;;;;;5053247;28;20424;-84
2021/12/07 15:07:10;;;;;;;5.90;2.90;;;8.10;99.90;;;;;;5050825;28;20483;-84
2021/12/07 15:09:44;;;;;;;11.32;3.00;;;8.10;99.90;;;;;;5045363;28;20044;-85
2021/12/07 15:12:18;;;;;;;8.85;3.05;;;8.10;99.90;;;;;;5057594;28;20060;-79